sensor_id;sensor_type;location;lat;lon;timestamp;temperature;humidity
13970;DHT22;7057;49.984;8.404;2023-08-17T00:00:01;18.50;99.90
13970;DHT22;7057;49.984;8.404;2023-08-17T00:02:31;18.40;99.90
13970;DHT22;7057;49.984;8.404;2023-08-17T00:04:59;18.40;99.90
13970;DHT22;7057;49.984;8.404;2023-08-17T00:07:26;18.40;99.90
13970;DHT22;7057;49.984;8.404;2023-08-17T00:09:54;18.40;99.90
13970;DHT22;7057;49.984;8.404;2023-08-17T00:12:22;18.40;99.90
13970;DHT22;7057;49.984;8.404;2023-08-17T00:14:50;18.40;99.90
13970;DHT22;7057;49.984;8.404;2023-08-17T00:17:17;18.40;99.90
13970;DHT22;7057;49.984;8.404;2023-08-17T00:19:44;18.40;99.90
13970;DHT22;7057;49.984;8.404;2023-08-17T00:22:12;18.40;99.90
13970;DHT22;7057;49.984;8.404;2023-08-17T00:24:39;18.30;99.90
13970;DHT22;7057;49.984;8.404;2023-08-17T00:27:07;18.30;99.90
13970;DHT22;7057;49.984;8.404;2023-08-17T00:29:36;18.40;99.90
13970;DHT22;7057;49.984;8.404;2023-08-17T00:32:04;18.30;99.90
13970;DHT22;7057;49.984;8.404;2023-08-17T00:34:31;18.30;99.90
13970;DHT22;7057;49.984;8.404;2023-08-17T00:36:59;18.30;99.90
13970;DHT22;7057;49.984;8.404;2023-08-17T00:39:27;18.30;99.90
13970;DHT22;7057;49.984;8.404;2023-08-17T00:41:53;18.30;99.90
13970;DHT22;7057;49.984;8.404;2023-08-17T00:44:20;18.30;99.90
13970;DHT22;7057;49.984;8.404;2023-08-17T00:46:48;18.30;99.90
13970;DHT22;7057;49.984;8.404;2023-08-17T00:49:16;18.20;99.90
13970;DHT22;7057;49.984;8.404;2023-08-17T00:51:43;18.20;99.90
13970;DHT22;7057;49.984;8.404;2023-08-17T00:54:10;18.20;99.90
13970;DHT22;7057;49.984;8.404;2023-08-17T00:56:38;18.20;99.90
13970;DHT22;7057;49.984;8.404;2023-08-17T00:59:05;18.30;99.90
13970;DHT22;7057;49.984;8.404;2023-08-17T01:01:32;18.30;99.90
13970;DHT22;7057;49.984;8.404;2023-08-17T01:04:01;18.40;99.90
13970;DHT22;7057;49.984;8.404;2023-08-17T01:06:28;18.50;99.90
13970;DHT22;7057;49.984;8.404;2023-08-17T01:08:55;18.50;99.90
13970;DHT22;7057;49.984;8.404;2023-08-17T01:11:29;18.50;99.90
13970;DHT22;7057;49.984;8.404;2023-08-17T01:14:02;18.50;99.90
13970;DHT22;7057;49.984;8.404;2023-08-17T01:16:32;18.60;99.90
13970;DHT22;7057;49.984;8.404;2023-08-17T01:19:01;18.70;99.90
13970;DHT22;7057;49.984;8.404;2023-08-17T01:21:37;18.70;99.90
13970;DHT22;7057;49.984;8.404;2023-08-17T01:24:08;18.70;99.90
13970;DHT22;7057;49.984;8.404;2023-08-17T01:26:35;18.80;99.90
13970;DHT22;7057;49.984;8.404;2023-08-17T01:29:02;18.80;99.90
13970;DHT22;7057;49.984;8.404;2023-08-17T01:31:33;18.80;99.90
13970;DHT22;7057;49.984;8.404;2023-08-17T01:34:05;18.80;99.90
13970;DHT22;7057;49.984;8.404;2023-08-17T01:36:37;18.80;99.90
13970;DHT22;7057;49.984;8.404;2023-08-17T01:39:06;18.80;99.90
13970;DHT22;7057;49.984;8.404;2023-08-17T01:41:35;18.80;99.90
13970;DHT22;7057;49.984;8.404;2023-08-17T01:44:04;18.70;99.90
13970;DHT22;7057;49.984;8.404;2023-08-17T01:46:32;18.70;99.90
13970;DHT22;7057;49.984;8.404;2023-08-17T01:48:59;18.70;99.90
13970;DHT22;7057;49.984;8.404;2023-08-17T01:51:27;18.60;99.90
13970;DHT22;7057;49.984;8.404;2023-08-17T01:53:54;18.60;99.90
13970;DHT22;7057;49.984;8.404;2023-08-17T01:56:22;18.50;99.90
13970;DHT22;7057;49.984;8.404;2023-08-17T01:58:49;18.50;99.90
13970;DHT22;7057;49.984;8.404;2023-08-17T02:01:16;18.50;99.90
13970;DHT22;7057;49.984;8.404;2023-08-17T02:03:44;18.40;99.90
13970;DHT22;7057;49.984;8.404;2023-08-17T02:06:11;18.40;99.90
13970;DHT22;7057;49.984;8.404;2023-08-17T02:08:38;18.40;99.90
13970;DHT22;7057;49.984;8.404;2023-08-17T02:11:05;18.40;99.90
13970;DHT22;7057;49.984;8.404;2023-08-17T02:13:34;18.30;99.90
13970;DHT22;7057;49.984;8.404;2023-08-17T02:16:02;18.30;99.90
13970;DHT22;7057;49.984;8.404;2023-08-17T02:18:29;18.30;99.90
13970;DHT22;7057;49.984;8.404;2023-08-17T02:20:58;18.30;99.90
13970;DHT22;7057;49.984;8.404;2023-08-17T02:23:26;18.30;99.90
13970;DHT22;7057;49.984;8.404;2023-08-17T02:25:53;18.30;99.90
13970;DHT22;7057;49.984;8.404;2023-08-17T02:28:20;18.20;99.90
13970;DHT22;7057;49.984;8.404;2023-08-17T02:30:48;18.20;99.90
13970;DHT22;7057;49.984;8.404;2023-08-17T02:33:16;18.20;99.90
13970;DHT22;7057;49.984;8.404;2023-08-17T02:35:47;18.20;99.90
13970;DHT22;7057;49.984;8.404;2023-08-17T02:38:14;18.20;99.90
13970;DHT22;7057;49.984;8.404;2023-08-17T02:40:41;18.20;99.90
13970;DHT22;7057;49.984;8.404;2023-08-17T02:43:09;18.20;99.90
13970;DHT22;7057;49.984;8.404;2023-08-17T02:45:36;18.10;99.90
13970;DHT22;7057;49.984;8.404;2023-08-17T02:48:05;18.20;99.90
13970;DHT22;7057;49.984;8.404;2023-08-17T02:50:32;18.20;99.90
13970;DHT22;7057;49.984;8.404;2023-08-17T02:52:59;18.10;99.90
13970;DHT22;7057;49.984;8.404;2023-08-17T02:55:27;18.10;99.90
13970;DHT22;7057;49.984;8.404;2023-08-17T02:57:55;18.10;99.90
13970;DHT22;7057;49.984;8.404;2023-08-17T03:00:22;18.10;99.90
13970;DHT22;7057;49.984;8.404;2023-08-17T03:02:49;18.10;99.90
13970;DHT22;7057;49.984;8.404;2023-08-17T03:05:18;18.10;99.90
13970;DHT22;7057;49.984;8.404;2023-08-17T03:07:45;18.10;99.90
13970;DHT22;7057;49.984;8.404;2023-08-17T03:10:12;18.00;99.90
13970;DHT22;7057;49.984;8.404;2023-08-17T03:12:39;18.00;99.90
13970;DHT22;7057;49.984;8.404;2023-08-17T03:15:07;18.00;99.90
13970;DHT22;7057;49.984;8.404;2023-08-17T03:17:34;17.90;99.90
13970;DHT22;7057;49.984;8.404;2023-08-17T03:20:01;17.90;99.90
13970;DHT22;7057;49.984;8.404;2023-08-17T03:22:33;17.90;99.90
13970;DHT22;7057;49.984;8.404;2023-08-17T03:25:00;17.90;99.90
13970;DHT22;7057;49.984;8.404;2023-08-17T03:27:28;17.90;99.90
13970;DHT22;7057;49.984;8.404;2023-08-17T03:29:55;17.90;99.90
13970;DHT22;7057;49.984;8.404;2023-08-17T03:32:22;17.80;99.90
13970;DHT22;7057;49.984;8.404;2023-08-17T03:34:50;17.90;99.90
13970;DHT22;7057;49.984;8.404;2023-08-17T03:37:17;17.80;99.90
13970;DHT22;7057;49.984;8.404;2023-08-17T03:39:45;17.80;99.90
13970;DHT22;7057;49.984;8.404;2023-08-17T03:42:12;17.80;99.90
13970;DHT22;7057;49.984;8.404;2023-08-17T03:44:39;17.80;99.90
13970;DHT22;7057;49.984;8.404;2023-08-17T03:47:07;17.80;99.90
13970;DHT22;7057;49.984;8.404;2023-08-17T03:49:34;17.70;99.90
13970;DHT22;7057;49.984;8.404;2023-08-17T03:52:01;17.70;99.90
13970;DHT22;7057;49.984;8.404;2023-08-17T03:54:28;17.70;99.90
13970;DHT22;7057;49.984;8.404;2023-08-17T03:56:57;17.70;99.90
13970;DHT22;7057;49.984;8.404;2023-08-17T03:59:24;17.70;99.90
13970;DHT22;7057;49.984;8.404;2023-08-17T04:01:51;17.70;99.90
13970;DHT22;7057;49.984;8.404;2023-08-17T04:04:18;17.60;99.90
13970;DHT22;7057;49.984;8.404;2023-08-17T04:06:45;17.70;99.90
13970;DHT22;7057;49.984;8.404;2023-08-17T04:09:12;17.60;99.90
13970;DHT22;7057;49.984;8.404;2023-08-17T04:11:40;17.60;99.90
13970;DHT22;7057;49.984;8.404;2023-08-17T04:14:08;17.60;99.90
13970;DHT22;7057;49.984;8.404;2023-08-17T04:16:35;17.60;99.90
13970;DHT22;7057;49.984;8.404;2023-08-17T04:19:03;17.60;99.90
13970;DHT22;7057;49.984;8.404;2023-08-17T04:21:31;17.60;99.90
13970;DHT22;7057;49.984;8.404;2023-08-17T04:23:58;17.60;99.90
13970;DHT22;7057;49.984;8.404;2023-08-17T04:26:25;17.60;99.90
13970;DHT22;7057;49.984;8.404;2023-08-17T04:28:52;17.60;99.90
13970;DHT22;7057;49.984;8.404;2023-08-17T04:31:21;17.60;99.90
13970;DHT22;7057;49.984;8.404;2023-08-17T04:33:48;17.60;99.90
13970;DHT22;7057;49.984;8.404;2023-08-17T04:36:15;17.60;99.90
13970;DHT22;7057;49.984;8.404;2023-08-17T04:38:42;17.60;99.90
13970;DHT22;7057;49.984;8.404;2023-08-17T04:41:09;17.60;99.90
13970;DHT22;7057;49.984;8.404;2023-08-17T04:43:36;17.60;99.90
13970;DHT22;7057;49.984;8.404;2023-08-17T04:46:04;17.60;99.90
13970;DHT22;7057;49.984;8.404;2023-08-17T04:48:32;17.60;99.90
13970;DHT22;7057;49.984;8.404;2023-08-17T04:50:59;17.70;99.90
13970;DHT22;7057;49.984;8.404;2023-08-17T04:53:26;17.60;99.90
13970;DHT22;7057;49.984;8.404;2023-08-17T04:55:53;17.70;99.90
13970;DHT22;7057;49.984;8.404;2023-08-17T04:58:21;17.70;99.90
13970;DHT22;7057;49.984;8.404;2023-08-17T05:00:48;17.70;99.90
13970;DHT22;7057;49.984;8.404;2023-08-17T05:03:15;17.70;99.90
13970;DHT22;7057;49.984;8.404;2023-08-17T05:05:44;17.80;99.90
13970;DHT22;7057;49.984;8.404;2023-08-17T05:08:11;17.90;99.90
13970;DHT22;7057;49.984;8.404;2023-08-17T05:10:39;17.90;99.90
13970;DHT22;7057;49.984;8.404;2023-08-17T05:13:06;18.00;99.90
13970;DHT22;7057;49.984;8.404;2023-08-17T05:15:34;18.00;99.90
13970;DHT22;7057;49.984;8.404;2023-08-17T05:18:01;18.10;99.90
13970;DHT22;7057;49.984;8.404;2023-08-17T05:20:28;18.10;99.90
13970;DHT22;7057;49.984;8.404;2023-08-17T05:22:56;18.20;99.90
13970;DHT22;7057;49.984;8.404;2023-08-17T05:25:24;18.20;99.90
13970;DHT22;7057;49.984;8.404;2023-08-17T05:27:52;18.30;99.90
13970;DHT22;7057;49.984;8.404;2023-08-17T05:30:19;18.30;99.90
13970;DHT22;7057;49.984;8.404;2023-08-17T05:32:46;18.40;99.90
13970;DHT22;7057;49.984;8.404;2023-08-17T05:35:14;18.50;99.90
13970;DHT22;7057;49.984;8.404;2023-08-17T05:37:41;18.50;99.90
13970;DHT22;7057;49.984;8.404;2023-08-17T05:40:10;18.50;99.90
13970;DHT22;7057;49.984;8.404;2023-08-17T05:42:37;18.60;99.90
13970;DHT22;7057;49.984;8.404;2023-08-17T05:45:06;18.60;99.90
13970;DHT22;7057;49.984;8.404;2023-08-17T05:47:33;18.70;99.90
13970;DHT22;7057;49.984;8.404;2023-08-17T05:50:00;18.70;99.90
13970;DHT22;7057;49.984;8.404;2023-08-17T05:52:27;18.80;99.90
13970;DHT22;7057;49.984;8.404;2023-08-17T05:54:55;18.80;99.90
13970;DHT22;7057;49.984;8.404;2023-08-17T05:57:23;18.90;99.90
13970;DHT22;7057;49.984;8.404;2023-08-17T05:59:50;19.00;99.90
13970;DHT22;7057;49.984;8.404;2023-08-17T06:02:17;19.00;99.90
13970;DHT22;7057;49.984;8.404;2023-08-17T06:04:46;19.10;99.90
13970;DHT22;7057;49.984;8.404;2023-08-17T06:07:13;19.10;99.90
13970;DHT22;7057;49.984;8.404;2023-08-17T06:09:41;19.20;99.90
13970;DHT22;7057;49.984;8.404;2023-08-17T06:12:08;19.20;99.90
13970;DHT22;7057;49.984;8.404;2023-08-17T06:14:36;19.30;99.90
13970;DHT22;7057;49.984;8.404;2023-08-17T06:17:04;19.30;99.90
13970;DHT22;7057;49.984;8.404;2023-08-17T06:19:31;19.40;99.90
13970;DHT22;7057;49.984;8.404;2023-08-17T06:21:58;19.40;99.90
13970;DHT22;7057;49.984;8.404;2023-08-17T06:24:25;19.40;99.90
13970;DHT22;7057;49.984;8.404;2023-08-17T06:26:52;19.50;99.90
13970;DHT22;7057;49.984;8.404;2023-08-17T06:29:19;19.70;99.90
13970;DHT22;7057;49.984;8.404;2023-08-17T06:31:48;19.60;99.90
13970;DHT22;7057;49.984;8.404;2023-08-17T06:34:15;19.60;99.90
13970;DHT22;7057;49.984;8.404;2023-08-17T06:36:42;19.80;99.90
13970;DHT22;7057;49.984;8.404;2023-08-17T06:39:23;19.80;99.90
13970;DHT22;7057;49.984;8.404;2023-08-17T06:41:50;19.90;99.90
13970;DHT22;7057;49.984;8.404;2023-08-17T06:44:17;19.90;99.90
13970;DHT22;7057;49.984;8.404;2023-08-17T06:46:44;19.90;99.90
13970;DHT22;7057;49.984;8.404;2023-08-17T06:49:13;20.00;99.90
13970;DHT22;7057;49.984;8.404;2023-08-17T06:51:40;20.20;99.90
13970;DHT22;7057;49.984;8.404;2023-08-17T06:54:08;20.30;99.90
13970;DHT22;7057;49.984;8.404;2023-08-17T06:56:35;20.50;99.90
13970;DHT22;7057;49.984;8.404;2023-08-17T06:59:03;20.60;99.90
13970;DHT22;7057;49.984;8.404;2023-08-17T07:01:30;20.70;99.90
13970;DHT22;7057;49.984;8.404;2023-08-17T07:03:57;21.00;99.90
13970;DHT22;7057;49.984;8.404;2023-08-17T07:06:26;21.20;99.90
13970;DHT22;7057;49.984;8.404;2023-08-17T07:08:54;21.30;99.90
13970;DHT22;7057;49.984;8.404;2023-08-17T07:11:22;21.40;99.90
13970;DHT22;7057;49.984;8.404;2023-08-17T07:13:49;21.50;99.90
13970;DHT22;7057;49.984;8.404;2023-08-17T07:16:17;21.50;99.90
13970;DHT22;7057;49.984;8.404;2023-08-17T07:18:44;21.60;99.90
13970;DHT22;7057;49.984;8.404;2023-08-17T07:21:11;21.70;99.90
13970;DHT22;7057;49.984;8.404;2023-08-17T07:23:44;21.80;99.90
13970;DHT22;7057;49.984;8.404;2023-08-17T07:26:12;21.80;99.90
13970;DHT22;7057;49.984;8.404;2023-08-17T07:28:39;21.80;99.90
13970;DHT22;7057;49.984;8.404;2023-08-17T07:31:06;21.80;99.90
13970;DHT22;7057;49.984;8.404;2023-08-17T07:33:33;22.00;99.90
13970;DHT22;7057;49.984;8.404;2023-08-17T07:36:00;22.20;99.90
13970;DHT22;7057;49.984;8.404;2023-08-17T07:38:27;22.10;99.90
13970;DHT22;7057;49.984;8.404;2023-08-17T07:40:56;22.00;99.90
13970;DHT22;7057;49.984;8.404;2023-08-17T07:43:24;21.80;99.90
13970;DHT22;7057;49.984;8.404;2023-08-17T07:45:54;21.80;99.90
13970;DHT22;7057;49.984;8.404;2023-08-17T07:48:22;21.90;99.90
13970;DHT22;7057;49.984;8.404;2023-08-17T07:50:49;22.10;99.90
13970;DHT22;7057;49.984;8.404;2023-08-17T07:53:17;21.80;99.90
13970;DHT22;7057;49.984;8.404;2023-08-17T07:55:44;21.70;99.90
13970;DHT22;7057;49.984;8.404;2023-08-17T07:58:13;21.60;99.90
13970;DHT22;7057;49.984;8.404;2023-08-17T08:00:40;21.30;99.90
13970;DHT22;7057;49.984;8.404;2023-08-17T08:03:07;21.40;99.90
13970;DHT22;7057;49.984;8.404;2023-08-17T08:05:35;21.30;99.90
13970;DHT22;7057;49.984;8.404;2023-08-17T08:08:02;21.40;99.90
13970;DHT22;7057;49.984;8.404;2023-08-17T08:10:29;21.50;99.90
13970;DHT22;7057;49.984;8.404;2023-08-17T08:12:56;21.60;99.90
13970;DHT22;7057;49.984;8.404;2023-08-17T08:15:25;21.80;99.90
13970;DHT22;7057;49.984;8.404;2023-08-17T08:17:52;21.90;99.90
13970;DHT22;7057;49.984;8.404;2023-08-17T08:20:20;22.00;99.90
13970;DHT22;7057;49.984;8.404;2023-08-17T08:22:47;22.00;99.90
13970;DHT22;7057;49.984;8.404;2023-08-17T08:25:14;21.80;99.90
13970;DHT22;7057;49.984;8.404;2023-08-17T08:27:41;21.50;99.90
13970;DHT22;7057;49.984;8.404;2023-08-17T08:30:09;21.40;99.90
13970;DHT22;7057;49.984;8.404;2023-08-17T08:32:37;21.50;99.90
13970;DHT22;7057;49.984;8.404;2023-08-17T08:35:05;21.80;99.90
13970;DHT22;7057;49.984;8.404;2023-08-17T08:37:32;21.80;99.90
13970;DHT22;7057;49.984;8.404;2023-08-17T08:39:59;21.90;99.90
13970;DHT22;7057;49.984;8.404;2023-08-17T08:42:27;21.90;99.90
13970;DHT22;7057;49.984;8.404;2023-08-17T08:44:54;22.30;99.90
13970;DHT22;7057;49.984;8.404;2023-08-17T08:47:22;22.50;99.90
13970;DHT22;7057;49.984;8.404;2023-08-17T08:49:58;22.80;99.90
13970;DHT22;7057;49.984;8.404;2023-08-17T08:52:32;22.60;99.90
13970;DHT22;7057;49.984;8.404;2023-08-17T08:55:06;22.60;99.90
13970;DHT22;7057;49.984;8.404;2023-08-17T08:57:37;22.60;99.90
13970;DHT22;7057;49.984;8.404;2023-08-17T09:00:07;22.80;99.90
13970;DHT22;7057;49.984;8.404;2023-08-17T09:02:35;22.60;99.90
13970;DHT22;7057;49.984;8.404;2023-08-17T09:05:05;22.50;99.90
13970;DHT22;7057;49.984;8.404;2023-08-17T09:07:33;22.50;99.90
13970;DHT22;7057;49.984;8.404;2023-08-17T09:10:02;22.30;99.90
13970;DHT22;7057;49.984;8.404;2023-08-17T09:12:30;22.30;99.90
13970;DHT22;7057;49.984;8.404;2023-08-17T09:15:09;22.50;99.90
13970;DHT22;7057;49.984;8.404;2023-08-17T09:17:37;22.50;99.90
13970;DHT22;7057;49.984;8.404;2023-08-17T09:20:08;22.60;99.90
13970;DHT22;7057;49.984;8.404;2023-08-17T09:22:40;22.80;99.90
13970;DHT22;7057;49.984;8.404;2023-08-17T09:25:08;22.90;99.90
13970;DHT22;7057;49.984;8.404;2023-08-17T09:27:37;23.10;99.90
13970;DHT22;7057;49.984;8.404;2023-08-17T09:30:05;23.40;99.90
13970;DHT22;7057;49.984;8.404;2023-08-17T09:32:33;23.50;99.90
13970;DHT22;7057;49.984;8.404;2023-08-17T09:35:01;23.50;99.90
13970;DHT22;7057;49.984;8.404;2023-08-17T09:37:31;23.50;99.90
13970;DHT22;7057;49.984;8.404;2023-08-17T09:39:59;23.60;99.90
13970;DHT22;7057;49.984;8.404;2023-08-17T09:42:26;23.40;99.90
13970;DHT22;7057;49.984;8.404;2023-08-17T09:44:54;23.40;99.90
13970;DHT22;7057;49.984;8.404;2023-08-17T09:47:22;23.40;99.90
13970;DHT22;7057;49.984;8.404;2023-08-17T09:49:50;23.40;99.90
13970;DHT22;7057;49.984;8.404;2023-08-17T09:52:18;23.10;99.90
13970;DHT22;7057;49.984;8.404;2023-08-17T09:54:47;23.20;99.90
13970;DHT22;7057;49.984;8.404;2023-08-17T09:57:15;23.30;99.90
13970;DHT22;7057;49.984;8.404;2023-08-17T09:59:42;23.50;99.90
13970;DHT22;7057;49.984;8.404;2023-08-17T10:02:18;23.50;99.90
13970;DHT22;7057;49.984;8.404;2023-08-17T10:04:49;23.70;99.90
13970;DHT22;7057;49.984;8.404;2023-08-17T10:07:19;23.80;99.90
13970;DHT22;7057;49.984;8.404;2023-08-17T10:09:54;23.90;99.90
13970;DHT22;7057;49.984;8.404;2023-08-17T10:12:26;24.00;99.90
13970;DHT22;7057;49.984;8.404;2023-08-17T10:14:59;24.00;99.90
13970;DHT22;7057;49.984;8.404;2023-08-17T10:20:13;24.00;99.90
13970;DHT22;7057;49.984;8.404;2023-08-17T10:22:47;24.10;99.90
13970;DHT22;7057;49.984;8.404;2023-08-17T10:25:20;24.20;99.90
13970;DHT22;7057;49.984;8.404;2023-08-17T10:27:49;24.30;99.90
13970;DHT22;7057;49.984;8.404;2023-08-17T10:30:17;24.50;99.90
13970;DHT22;7057;49.984;8.404;2023-08-17T10:32:44;24.80;99.90
13970;DHT22;7057;49.984;8.404;2023-08-17T10:35:13;24.60;99.90
13970;DHT22;7057;49.984;8.404;2023-08-17T10:37:41;24.50;99.90
13970;DHT22;7057;49.984;8.404;2023-08-17T10:40:09;24.30;99.90
13970;DHT22;7057;49.984;8.404;2023-08-17T10:42:38;24.40;99.90
13970;DHT22;7057;49.984;8.404;2023-08-17T10:45:27;24.70;99.90
13970;DHT22;7057;49.984;8.404;2023-08-17T10:48:26;24.90;99.90
13970;DHT22;7057;49.984;8.404;2023-08-17T10:51:03;25.10;99.90
13970;DHT22;7057;49.984;8.404;2023-08-17T10:53:35;25.10;99.90
13970;DHT22;7057;49.984;8.404;2023-08-17T10:56:07;25.20;99.90
13970;DHT22;7057;49.984;8.404;2023-08-17T10:58:36;25.50;99.90
13970;DHT22;7057;49.984;8.404;2023-08-17T11:01:03;25.60;99.90
13970;DHT22;7057;49.984;8.404;2023-08-17T11:03:30;25.80;99.90
13970;DHT22;7057;49.984;8.404;2023-08-17T11:06:14;25.90;99.90
13970;DHT22;7057;49.984;8.404;2023-08-17T11:08:51;25.90;99.90
13970;DHT22;7057;49.984;8.404;2023-08-17T11:11:20;26.00;99.90
13970;DHT22;7057;49.984;8.404;2023-08-17T11:13:49;26.00;99.90
13970;DHT22;7057;49.984;8.404;2023-08-17T11:16:17;26.00;99.90
13970;DHT22;7057;49.984;8.404;2023-08-17T11:18:46;26.10;99.90
13970;DHT22;7057;49.984;8.404;2023-08-17T11:21:14;26.30;99.90
13970;DHT22;7057;49.984;8.404;2023-08-17T11:23:42;26.20;99.90
13970;DHT22;7057;49.984;8.404;2023-08-17T11:26:09;25.90;99.90
13970;DHT22;7057;49.984;8.404;2023-08-17T11:28:36;25.70;99.90
13970;DHT22;7057;49.984;8.404;2023-08-17T11:31:08;25.70;99.90
13970;DHT22;7057;49.984;8.404;2023-08-17T11:33:36;25.60;99.90
13970;DHT22;7057;49.984;8.404;2023-08-17T11:36:05;26.00;99.90
13970;DHT22;7057;49.984;8.404;2023-08-17T11:38:33;26.00;99.90
13970;DHT22;7057;49.984;8.404;2023-08-17T11:41:02;26.00;99.90
13970;DHT22;7057;49.984;8.404;2023-08-17T11:43:31;26.10;99.90
13970;DHT22;7057;49.984;8.404;2023-08-17T11:46:00;26.40;99.90
13970;DHT22;7057;49.984;8.404;2023-08-17T11:48:29;26.60;99.90
13970;DHT22;7057;49.984;8.404;2023-08-17T11:50:56;26.70;99.90
13970;DHT22;7057;49.984;8.404;2023-08-17T11:53:24;26.80;99.90
13970;DHT22;7057;49.984;8.404;2023-08-17T11:55:51;26.90;99.90
13970;DHT22;7057;49.984;8.404;2023-08-17T11:58:18;26.90;99.90
13970;DHT22;7057;49.984;8.404;2023-08-17T12:00:46;27.00;99.90
13970;DHT22;7057;49.984;8.404;2023-08-17T12:03:15;27.10;99.90
13970;DHT22;7057;49.984;8.404;2023-08-17T12:05:44;27.10;99.90
13970;DHT22;7057;49.984;8.404;2023-08-17T12:08:13;27.20;99.90
13970;DHT22;7057;49.984;8.404;2023-08-17T12:10:41;27.30;99.90
13970;DHT22;7057;49.984;8.404;2023-08-17T12:13:11;27.40;99.90
13970;DHT22;7057;49.984;8.404;2023-08-17T12:15:40;27.40;99.90
13970;DHT22;7057;49.984;8.404;2023-08-17T12:18:07;27.30;99.90
13970;DHT22;7057;49.984;8.404;2023-08-17T12:20:35;27.30;99.90
13970;DHT22;7057;49.984;8.404;2023-08-17T12:23:04;27.50;99.90
13970;DHT22;7057;49.984;8.404;2023-08-17T12:25:31;27.70;99.90
13970;DHT22;7057;49.984;8.404;2023-08-17T12:27:59;27.90;99.90
13970;DHT22;7057;49.984;8.404;2023-08-17T12:30:28;28.00;99.90
13970;DHT22;7057;49.984;8.404;2023-08-17T12:32:55;27.90;99.90
13970;DHT22;7057;49.984;8.404;2023-08-17T12:35:23;28.00;99.90
13970;DHT22;7057;49.984;8.404;2023-08-17T12:37:51;28.00;99.90
13970;DHT22;7057;49.984;8.404;2023-08-17T12:40:20;28.20;99.90
13970;DHT22;7057;49.984;8.404;2023-08-17T12:42:47;28.40;99.90
13970;DHT22;7057;49.984;8.404;2023-08-17T12:45:15;28.40;99.90
13970;DHT22;7057;49.984;8.404;2023-08-17T12:47:43;28.40;99.90
13970;DHT22;7057;49.984;8.404;2023-08-17T12:50:10;28.40;99.90
13970;DHT22;7057;49.984;8.404;2023-08-17T12:52:37;28.40;99.90
13970;DHT22;7057;49.984;8.404;2023-08-17T12:55:05;28.40;99.90
13970;DHT22;7057;49.984;8.404;2023-08-17T12:57:33;28.40;99.90
13970;DHT22;7057;49.984;8.404;2023-08-17T13:00:01;28.60;99.90
13970;DHT22;7057;49.984;8.404;2023-08-17T13:02:28;28.70;99.90
13970;DHT22;7057;49.984;8.404;2023-08-17T13:04:56;28.70;99.90
13970;DHT22;7057;49.984;8.404;2023-08-17T13:07:23;28.60;99.90
13970;DHT22;7057;49.984;8.404;2023-08-17T13:09:50;28.50;99.90
13970;DHT22;7057;49.984;8.404;2023-08-17T13:12:17;28.20;99.90
13970;DHT22;7057;49.984;8.404;2023-08-17T13:14:45;28.20;99.90
13970;DHT22;7057;49.984;8.404;2023-08-17T13:17:13;28.10;99.90
13970;DHT22;7057;49.984;8.404;2023-08-17T13:19:42;28.10;99.90
13970;DHT22;7057;49.984;8.404;2023-08-17T13:22:09;28.10;99.90
13970;DHT22;7057;49.984;8.404;2023-08-17T13:24:37;28.00;99.90
13970;DHT22;7057;49.984;8.404;2023-08-17T13:27:05;28.10;99.90
13970;DHT22;7057;49.984;8.404;2023-08-17T13:29:33;28.40;99.90
13970;DHT22;7057;49.984;8.404;2023-08-17T13:32:03;28.80;99.90
13970;DHT22;7057;49.984;8.404;2023-08-17T13:34:30;29.10;99.90
13970;DHT22;7057;49.984;8.404;2023-08-17T13:36:57;29.20;99.90
13970;DHT22;7057;49.984;8.404;2023-08-17T13:39:25;29.30;99.90
13970;DHT22;7057;49.984;8.404;2023-08-17T13:41:52;29.30;99.90
13970;DHT22;7057;49.984;8.404;2023-08-17T13:44:19;29.00;99.90
13970;DHT22;7057;49.984;8.404;2023-08-17T13:46:46;28.90;99.90
13970;DHT22;7057;49.984;8.404;2023-08-17T13:49:15;28.90;99.90
13970;DHT22;7057;49.984;8.404;2023-08-17T13:51:42;29.10;99.90
13970;DHT22;7057;49.984;8.404;2023-08-17T13:54:09;29.40;99.90
13970;DHT22;7057;49.984;8.404;2023-08-17T13:56:36;29.40;99.90
13970;DHT22;7057;49.984;8.404;2023-08-17T13:59:03;29.40;99.90
13970;DHT22;7057;49.984;8.404;2023-08-17T14:01:30;29.30;99.90
13970;DHT22;7057;49.984;8.404;2023-08-17T14:03:58;28.90;99.90
13970;DHT22;7057;49.984;8.404;2023-08-17T14:06:26;28.80;99.90
13970;DHT22;7057;49.984;8.404;2023-08-17T14:08:53;28.70;99.90
13970;DHT22;7057;49.984;8.404;2023-08-17T14:11:20;28.50;99.90
13970;DHT22;7057;49.984;8.404;2023-08-17T14:13:48;28.60;99.90
13970;DHT22;7057;49.984;8.404;2023-08-17T14:16:15;28.70;99.90
13970;DHT22;7057;49.984;8.404;2023-08-17T14:18:42;28.60;99.90
13970;DHT22;7057;49.984;8.404;2023-08-17T14:21:09;28.80;99.90
13970;DHT22;7057;49.984;8.404;2023-08-17T14:23:38;29.10;99.90
13970;DHT22;7057;49.984;8.404;2023-08-17T14:26:06;29.60;99.90
13970;DHT22;7057;49.984;8.404;2023-08-17T14:28:33;29.90;99.90
13970;DHT22;7057;49.984;8.404;2023-08-17T14:31:00;29.90;99.90
13970;DHT22;7057;49.984;8.404;2023-08-17T14:33:27;29.70;99.90
13970;DHT22;7057;49.984;8.404;2023-08-17T14:35:55;29.70;99.90
13970;DHT22;7057;49.984;8.404;2023-08-17T14:38:22;29.60;99.90
13970;DHT22;7057;49.984;8.404;2023-08-17T14:40:50;29.50;99.90
13970;DHT22;7057;49.984;8.404;2023-08-17T14:43:17;29.30;99.90
13970;DHT22;7057;49.984;8.404;2023-08-17T14:45:44;29.10;99.90
13970;DHT22;7057;49.984;8.404;2023-08-17T14:48:12;28.90;99.90
13970;DHT22;7057;49.984;8.404;2023-08-17T14:50:39;28.80;99.90
13970;DHT22;7057;49.984;8.404;2023-08-17T14:53:06;28.70;99.90
13970;DHT22;7057;49.984;8.404;2023-08-17T14:55:34;28.60;99.90
13970;DHT22;7057;49.984;8.404;2023-08-17T14:58:02;28.50;99.90
13970;DHT22;7057;49.984;8.404;2023-08-17T15:00:30;28.50;99.90
13970;DHT22;7057;49.984;8.404;2023-08-17T15:02:57;28.70;99.90
13970;DHT22;7057;49.984;8.404;2023-08-17T15:05:24;29.00;99.90
13970;DHT22;7057;49.984;8.404;2023-08-17T15:07:52;29.50;99.90
13970;DHT22;7057;49.984;8.404;2023-08-17T15:10:19;29.90;99.90
13970;DHT22;7057;49.984;8.404;2023-08-17T15:12:47;30.20;99.90
13970;DHT22;7057;49.984;8.404;2023-08-17T15:15:16;30.40;99.90
13970;DHT22;7057;49.984;8.404;2023-08-17T15:17:43;30.30;99.90
13970;DHT22;7057;49.984;8.404;2023-08-17T15:20:11;30.10;99.90
13970;DHT22;7057;49.984;8.404;2023-08-17T15:22:38;30.00;99.90
13970;DHT22;7057;49.984;8.404;2023-08-17T15:25:05;30.10;99.90
13970;DHT22;7057;49.984;8.404;2023-08-17T15:27:33;30.10;99.90
13970;DHT22;7057;49.984;8.404;2023-08-17T15:30:00;30.00;99.90
13970;DHT22;7057;49.984;8.404;2023-08-17T15:32:29;30.00;99.90
13970;DHT22;7057;49.984;8.404;2023-08-17T15:34:56;29.90;99.90
13970;DHT22;7057;49.984;8.404;2023-08-17T15:37:24;29.90;99.90
13970;DHT22;7057;49.984;8.404;2023-08-17T15:39:51;30.00;99.90
13970;DHT22;7057;49.984;8.404;2023-08-17T15:42:19;29.90;99.90
13970;DHT22;7057;49.984;8.404;2023-08-17T15:44:46;29.90;99.90
13970;DHT22;7057;49.984;8.404;2023-08-17T15:47:13;29.90;99.90
13970;DHT22;7057;49.984;8.404;2023-08-17T15:49:41;29.70;99.90
13970;DHT22;7057;49.984;8.404;2023-08-17T15:52:09;29.70;99.90